This is the latest recevied weather packets stored in our database for station/object HS1WDC-1. If no packets are shown the sender has not sent any weather packets the latest 10 day(s).
| Time | Temp. | Humidity | Pressure | Rain* | Wind** | Luminosity | Snow |
|---|---|---|---|---|---|---|---|
| 1777936549 | 31.67° C | 62% | 1009 hPa | - | - | 0 W/m² | - |
| 1777935624 | 32.22° C | 60% | 1009 hPa | - | - | 0 W/m² | - |
| 1777934700 | 32.78° C | 58% | 1009 hPa | - | - | 0 W/m² | - |
| 1777933776 | 32.22° C | 59% | 1008 hPa | - | - | 0 W/m² | - |
| 1777932851 | 32.22° C | 58% | 1008 hPa | - | - | 0 W/m² | - |
| 1777931927 | 32.78° C | 55% | 1008 hPa | - | - | 0 W/m² | - |
| 1777931003 | 33.33° C | 55% | 1008 hPa | - | - | 0 W/m² | - |
| 1777930079 | 32.78° C | 56% | 1008 hPa | - | - | 0 W/m² | - |
| 1777929154 | 33.33° C | 54% | 1009 hPa | - | - | 0 W/m² | - |
| 1777928230 | 33.33° C | 57% | 1009 hPa | - | - | 0 W/m² | - |
| 1777927305 | 33.89° C | 60% | 1009 hPa | - | - | 0 W/m² | - |
| 1777926381 | 33.89° C | 60% | 1009 hPa | - | - | 0 W/m² | - |
| 1777925457 | 33.33° C | 61% | 1009 hPa | - | - | 0 W/m² | - |
| 1777924507 | 33.33° C | 60% | 1010 hPa | - | - | 0 W/m² | - |
| 1777923582 | 33.89° C | 59% | 1010 hPa | - | - | 0 W/m² | - |
| 1777922658 | 32.78° C | 62% | 1010 hPa | - | - | 0 W/m² | - |
| 1777921734 | 33.89° C | 59% | 1010 hPa | - | - | 0 W/m² | - |
| 1777920810 | 34.44° C | 57% | 1009 hPa | - | - | 0 W/m² | - |
| 1777919885 | 34.44° C | 58% | 1010 hPa | - | - | 0 W/m² | - |
| 1777918961 | 35° C | 58% | 1010 hPa | - | - | 0 W/m² | - |
| 1777918037 | 34.44° C | 60% | 1010 hPa | - | - | 0 W/m² | - |
| 1777917113 | 34.44° C | 60% | 1010 hPa | - | - | 0 W/m² | - |
| 1777916188 | 34.44° C | 60% | 1010 hPa | - | - | 0 W/m² | - |
| 1777915264 | 34.44° C | 59% | 1010 hPa | - | - | 0 W/m² | - |
| 1777914339 | 34.44° C | 58% | 1009 hPa | - | - | 0 W/m² | - |
* Rain since midnight (hover to see other rain measurements)
** Current wind speed in m/s (hover to see current wind gust speed)